Time;durP1;ratioP1;P1;durP2;ratioP2;P2;SDS_P1;SDS_P2;PMS_P1;PMS_P2;Temp;Humidity;BMP_temperature;BMP_pressure;BME280_temperature;BME280_humidity;BME280_pressure;Samples;Min_cycle;Max_cycle;Signal;HPM_P1;HPM_P2
2021/05/14 05:26:33;;;;;;;8.10;7.30;;;;;;;17.31;61.03;99538.70;1831613;76;21937;-72
2021/05/14 05:29:01;;;;;;;9.13;7.50;;;;;;;17.15;61.59;99541.58;1846192;77;20916;-77
2021/05/14 05:31:28;;;;;;;8.88;6.70;;;;;;;17.02;61.60;99545.80;1835046;77;21459;-70
2021/05/14 05:33:58;;;;;;;7.47;6.78;;;;;;;16.98;61.53;99552.30;1832664;77;20976;-73
2021/05/14 05:36:30;;;;;;;7.25;6.55;;;;;;;17.19;62.15;99548.22;1829446;77;20948;-69
2021/05/14 05:38:57;;;;;;;9.03;7.00;;;;;;;17.63;60.99;99538.83;1820370;78;21005;-68
2021/05/14 05:41:26;;;;;;;8.25;6.97;;;;;;;18.07;59.61;99529.89;1826502;77;20988;-69
2021/05/14 05:43:54;;;;;;;7.87;6.85;;;;;;;18.35;58.98;99531.56;1830830;77;20960;-73
2021/05/14 05:46:22;;;;;;;7.85;6.60;;;;;;;18.47;57.34;99525.08;1826293;77;21588;-72
2021/05/14 05:48:50;;;;;;;11.68;7.12;;;;;;;18.44;56.54;99520.10;1823375;77;21047;-71
2021/05/14 05:51:17;;;;;;;7.22;6.45;;;;;;;18.41;57.12;99526.16;1834692;77;20936;-69
2021/05/14 05:53:46;;;;;;;10.35;7.03;;;;;;;18.43;57.26;99513.66;1844167;77;21027;-73
2021/05/14 05:56:16;;;;;;;8.38;6.20;;;;;;;18.49;58.06;99508.63;1849075;77;22266;-82
2021/05/14 05:58:55;;;;;;;5.72;5.15;;;;;;;18.76;57.65;99504.31;1851072;77;20983;-76
2021/05/14 06:01:27;;;;;;;9.25;5.50;;;;;;;19.22;56.45;99498.73;1852623;77;20900;-72
2021/05/14 06:03:55;;;;;;;5.12;4.70;;;;;;;19.76;54.07;99515.27;1839358;77;21067;-70
2021/05/14 06:06:22;;;;;;;7.67;4.67;;;;;;;20.09;52.70;99494.27;1780979;77;21511;-71
2021/05/14 06:08:52;;;;;;;4.67;4.28;;;;;;;20.29;53.06;99496.48;1823173;77;21028;-80
2021/05/14 06:11:33;;;;;;;6.65;4.90;;;;;;;20.65;51.31;99502.87;1689587;82;21072;-82
2021/05/14 06:14:28;;;;;;;;;;;;;;;20.78;49.98;99497.10;1689278;82;21713;-72
2021/05/14 06:17:11;;;;;;;10.65;5.28;;;;;;;20.85;49.77;99496.75;1713758;82;20156;-84
2021/05/14 06:19:51;;;;;;;8.20;4.90;;;;;;;21.10;48.99;99485.68;1712948;81;21071;-76
2021/05/14 06:22:17;;;;;;;6.15;4.28;;;;;;;21.14;48.81;99482.53;1723037;77;21138;-73
2021/05/14 06:24:44;;;;;;;4.22;3.83;;;;;;;21.02;48.29;99479.89;1851412;77;20921;-80
2021/05/14 06:27:11;;;;;;;4.17;3.80;;;;;;;20.68;48.17;99485.34;1836415;77;21027;-71
2021/05/14 06:29:42;;;;;;;4.70;4.20;;;;;;;20.20;48.27;99493.98;1843445;77;21558;-73
2021/05/14 06:32:09;;;;;;;5.45;3.52;;;;;;;19.77;49.90;99480.44;1837595;77;20991;-78
2021/05/14 06:34:36;;;;;;;6.75;4.30;;;;;;;19.48;51.08;99478.95;1837147;77;21635;-67
2021/05/14 06:37:06;;;;;;;5.15;4.42;;;;;;;19.36;51.94;99477.55;1810762;78;20898;-78
2021/05/14 06:39:33;;;;;;;4.55;3.87;;;;;;;19.25;52.88;99475.16;1834650;77;21019;-72
2021/05/14 06:42:00;;;;;;;4.87;3.55;;;;;;;19.42;52.67;99482.70;1827428;77;21561;-71
2021/05/14 06:44:30;;;;;;;3.90;3.50;;;;;;;19.75;52.03;99469.20;1817858;77;21610;-71
2021/05/14 06:47:01;;;;;;;7.47;5.47;;;;;;;20.22;51.81;99469.03;1819293;77;21705;-72
2021/05/14 06:49:33;;;;;;;5.90;3.67;;;;;;;20.73;49.65;99487.50;1820783;77;21011;-75
2021/05/14 06:52:03;;;;;;;10.60;7.20;;;;;;;21.02;47.80;99469.80;1823958;77;20953;-73
2021/05/14 06:54:31;;;;;;;5.08;3.95;;;;;;;21.23;47.29;99472.27;1824939;77;20996;-72
2021/05/14 06:56:58;;;;;;;6.30;4.55;;;;;;;21.44;46.29;99441.28;1747468;79;20980;-73
2021/05/14 06:59:25;;;;;;;14.03;3.95;;;;;;;21.59;46.54;99441.41;1757255;80;21454;-70
2021/05/14 07:01:52;;;;;;;4.35;3.00;;;;;;;21.82;46.77;99444.95;1768195;79;20909;-70
2021/05/14 07:04:21;;;;;;;5.40;3.08;;;;;;;22.13;45.77;99445.48;1772465;81;20985;-69
2021/05/14 07:06:50;;;;;;;3.60;3.27;;;;;;;22.48;45.61;99436.96;1784022;79;20889;-69
2021/05/14 07:09:17;;;;;;;3.70;3.40;;;;;;;22.48;45.61;99436.96;1772534;79;20961;-69
2021/05/14 07:11:45;;;;;;;4.50;3.08;;;;;;;22.97;43.54;99433.94;1781494;79;21468;-71
2021/05/14 07:14:12;;;;;;;8.60;7.12;;;;;;;22.97;43.54;99433.94;1775309;79;21016;-70
2021/05/14 07:16:39;;;;;;;5.62;5.10;;;;;;;23.10;43.41;99428.84;1777211;79;20933;-70
2021/05/14 07:22:09;;;;;;;4.05;2.90;;;;;;;23.41;41.97;99422.03;1781452;77;20869;-66
2021/05/14 07:24:37;;;;;;;6.55;3.47;;;;;;;23.49;41.67;99423.78;1760475;80;23164;-65
2021/05/14 07:27:04;;;;;;;3.62;2.92;;;;;;;23.59;41.87;99415.05;1766642;81;20968;-66
2021/05/14 07:29:31;;;;;;;4.50;3.15;;;;;;;23.62;41.73;99401.37;1775410;78;21075;-68
2021/05/14 07:31:58;;;;;;;3.55;3.22;;;;;;;23.69;41.43;99408.10;1778326;78;20940;-66
2021/05/14 07:34:26;;;;;;;6.67;3.35;;;;;;;23.61;41.39;99410.35;1756080;79;21014;-66
2021/05/14 07:36:54;;;;;;;6.20;4.40;;;;;;;23.39;40.96;99424.55;1756899;80;21641;-68
2021/05/14 07:39:29;;;;;;;7.67;4.72;;;;;;;23.10;41.35;99412.91;1775636;80;21589;-66
2021/05/14 07:42:06;;;;;;;5.87;3.60;;;;;;;23.00;41.65;99411.01;1753827;79;21001;-67
2021/05/14 07:44:33;;;;;;;3.00;2.80;;;;;;;23.31;41.92;99402.88;1804285;79;21619;-68
2021/05/14 07:47:00;;;;;;;8.48;3.87;;;;;;;23.63;41.26;99396.88;1811253;78;20976;-66
2021/05/14 07:49:27;;;;;;;13.65;7.95;;;;;;;23.85;41.20;99383.47;1804114;79;21041;-66
2021/05/14 07:51:55;;;;;;;20.72;10.78;;;;;;;24.05;39.40;99390.31;1789190;79;21014;-67
2021/05/14 07:54:22;;;;;;;5.80;4.12;;;;;;;24.17;39.19;99385.33;1798992;78;21022;-65
2021/05/14 07:56:49;;;;;;;22.07;8.68;;;;;;;24.29;37.38;99387.02;1793551;78;21020;-69
2021/05/14 07:59:16;;;;;;;45.30;16.23;;;;;;;24.21;38.07;99382.61;1792780;79;20955;-66
2021/05/14 08:01:43;;;;;;;26.12;11.40;;;;;;;24.16;38.10;99382.36;1796970;77;21035;-66
2021/05/14 08:04:12;;;;;;;20.97;8.00;;;;;;;24.20;37.99;99371.66;1801580;78;21562;-65
2021/05/14 08:06:39;;;;;;;49.85;24.15;;;;;;;24.32;37.48;99369.35;1802502;78;20973;-69
2021/05/14 08:09:10;;;;;;;26.27;11.70;;;;;;;24.50;37.56;99363.88;1794917;78;20960;-63
2021/05/14 08:11:36;;;;;;;15.18;8.93;;;;;;;24.64;37.15;99371.47;1793740;78;20955;-64
2021/05/14 08:14:04;;;;;;;9.53;5.20;;;;;;;24.64;37.40;99356.00;1797105;77;21096;-65
2021/05/14 08:16:31;;;;;;;6.65;3.25;;;;;;;24.65;37.79;99356.31;1792716;77;21686;-69
2021/05/14 08:18:59;;;;;;;8.08;3.62;;;;;;;24.90;37.05;99355.67;1794942;78;21556;-71
2021/05/14 08:21:26;;;;;;;4.25;3.42;;;;;;;25.09;35.98;99356.04;1805865;79;20994;-65
2021/05/14 08:23:53;;;;;;;6.83;3.87;;;;;;;24.90;36.67;99353.52;1794690;78;20935;-67
2021/05/14 08:26:20;;;;;;;5.33;3.45;;;;;;;24.73;37.13;99360.17;1776685;79;21644;-67
2021/05/14 08:28:48;;;;;;;7.67;4.72;;;;;;;24.58;37.63;99351.77;1792153;79;20956;-70
2021/05/14 08:31:15;;;;;;;14.55;6.87;;;;;;;24.42;38.03;99347.20;1790946;79;20982;-69
2021/05/14 08:33:43;;;;;;;20.80;9.10;;;;;;;24.17;38.18;99344.92;1737318;82;21038;-67
2021/05/14 08:36:10;;;;;;;17.75;8.98;;;;;;;23.90;39.07;99344.35;1781107;79;21537;-67
2021/05/14 08:38:37;;;;;;;12.85;7.17;;;;;;;23.76;40.13;99339.39;1779196;79;21231;-66
2021/05/14 08:41:08;;;;;;;19.98;9.75;;;;;;;23.77;40.25;99342.87;1780144;79;20992;-65
2021/05/14 08:43:35;;;;;;;27.37;12.28;;;;;;;23.58;40.48;99336.33;1777287;79;21671;-69
2021/05/14 08:46:02;;;;;;;23.65;11.63;;;;;;;23.40;40.89;99341.17;1780929;79;21043;-68
2021/05/14 08:48:32;;;;;;;21.48;13.70;;;;;;;23.33;41.39;99336.27;1781464;79;20960;-70
2021/05/14 08:51:11;;;;;;;20.77;13.40;;;;;;;23.22;41.19;99337.56;1780524;79;21043;-67
2021/05/14 08:53:46;;;;;;;8.30;6.12;;;;;;;23.12;41.58;99335.20;1778747;79;20921;-66
2021/05/14 08:56:13;;;;;;;12.28;5.35;;;;;;;23.12;42.50;99333.88;1757778;79;21530;-66
2021/05/14 08:58:44;;;;;;;7.37;5.40;;;;;;;23.17;43.05;99332.00;1779748;79;21031;-68
2021/05/14 09:01:11;;;;;;;6.87;4.40;;;;;;;23.17;42.31;99347.44;1780529;79;21000;-66
2021/05/14 09:04:05;;;;;;;6.92;3.95;;;;;;;23.11;42.56;99320.28;1776183;79;20900;-66
2021/05/14 09:06:37;;;;;;;8.15;5.42;;;;;;;23.12;43.21;99329.07;1762795;79;21120;-68
2021/05/14 09:09:08;;;;;;;10.40;5.45;;;;;;;23.09;43.19;99334.24;1777804;79;21023;-69
2021/05/14 09:11:46;;;;;;;10.38;5.17;;;;;;;23.01;43.67;99330.34;1801352;78;21030;-67
2021/05/14 09:14:41;;;;;;;9.15;5.62;;;;;;;22.95;43.47;99327.09;1801201;78;20998;-66
2021/05/14 09:17:10;;;;;;;9.75;5.67;;;;;;;22.90;43.67;99322.83;1801869;78;20974;-64
2021/05/14 09:19:41;;;;;;;6.75;4.42;;;;;;;22.90;43.74;99311.70;1806818;78;20911;-67
2021/05/14 09:22:15;;;;;;;6.95;4.40;;;;;;;22.97;43.09;99302.51;1790053;78;20975;-66
2021/05/14 09:24:47;;;;;;;6.78;4.50;;;;;;;23.07;43.43;99299.08;1784218;79;21010;-67
2021/05/14 09:27:28;;;;;;;5.85;4.30;;;;;;;23.22;43.17;99301.20;1781818;79;21499;-69
2021/05/14 09:29:58;;;;;;;12.73;6.67;;;;;;;23.31;43.19;99309.06;1797402;79;21101;-69
2021/05/14 09:32:31;;;;;;;10.10;5.60;;;;;;;23.44;43.51;99297.28;1799988;79;20987;-68
2021/05/14 09:35:00;;;;;;;8.43;4.50;;;;;;;23.58;42.69;99295.14;1787558;77;21058;-66
2021/05/14 09:37:28;;;;;;;19.20;8.85;;;;;;;23.65;42.48;99296.52;1804871;77;21018;-69
2021/05/14 09:40:22;;;;;;;13.93;7.62;;;;;;;23.64;42.09;99308.98;1805700;79;21529;-70
2021/05/14 09:42:58;;;;;;;11.90;6.20;;;;;;;23.58;42.05;99296.47;1743852;82;21622;-67
2021/05/14 09:45:26;;;;;;;16.90;9.00;;;;;;;23.49;42.26;99297.05;1812408;79;21524;-67
2021/05/14 09:48:19;;;;;;;15.20;8.55;;;;;;;23.47;42.15;99298.24;1800730;78;20983;-67
2021/05/14 09:50:44;;;;;;;12.50;7.60;;;;;;;23.51;41.77;99292.87;1796648;78;21607;-70
2021/05/14 09:53:17;;;;;;;17.07;10.43;;;;;;;23.50;42.15;99295.21;1807548;79;20960;-68
2021/05/14 09:55:50;;;;;;;12.33;6.12;;;;;;;23.56;42.94;99286.52;1799206;79;21114;-71
2021/05/14 09:58:21;;;;;;;7.67;5.47;;;;;;;23.67;42.87;99292.66;1786169;79;20969;-69
2021/05/14 10:00:48;;;;;;;10.32;4.78;;;;;;;23.69;43.16;99287.16;1796024;79;20982;-64
2021/05/14 10:03:24;;;;;;;20.97;8.68;;;;;;;23.65;43.28;99293.86;1800425;79;21043;-65
2021/05/14 10:05:52;;;;;;;11.53;5.80;;;;;;;23.62;43.46;99291.06;1804361;79;20968;-63
2021/05/14 10:08:20;;;;;;;13.93;5.87;;;;;;;23.58;43.76;99289.82;1794757;78;21547;-64
2021/05/14 10:10:51;;;;;;;12.10;4.60;;;;;;;23.50;43.89;99286.73;1809482;78;21051;-65
2021/05/14 10:13:18;;;;;;;11.33;6.45;;;;;;;23.40;43.74;99280.06;1797534;78;20959;-63
2021/05/14 10:15:45;;;;;;;8.55;5.47;;;;;;;23.23;44.58;99280.77;1778228;79;21044;-66
2021/05/14 10:18:17;;;;;;;14.15;6.60;;;;;;;23.11;45.16;99288.41;1780359;80;21008;-63
2021/05/14 10:20:45;;;;;;;16.07;7.30;;;;;;;22.97;44.86;99285.25;1780309;80;21461;-63
2021/05/14 10:23:12;;;;;;;17.37;8.40;;;;;;;22.89;45.87;99283.50;1782166;78;21448;-64
2021/05/14 10:25:50;;;;;;;10.53;6.20;;;;;;;22.88;45.71;99291.65;1788841;80;21675;-65
2021/05/14 10:28:24;;;;;;;7.65;4.80;;;;;;;22.79;43.85;99288.79;1789262;80;21038;-63
2021/05/14 10:31:09;;;;;;;5.72;3.90;;;;;;;;;;1789855;80;20887;-64
2021/05/14 10:33:40;;;;;;;;;;;;;;;22.35;47.84;99325.33;1792325;78;21149;-65
2021/05/14 10:36:31;;;;;;;6.70;4.12;;;;;;;21.95;51.28;99321.96;1789667;80;20520;-64
2021/05/14 10:39:13;;;;;;;6.58;4.20;;;;;;;21.64;54.03;99304.74;1791793;78;21006;-64
2021/05/14 10:41:55;;;;;;;9.70;4.83;;;;;;;21.43;55.82;99299.25;1804907;78;21563;-65
2021/05/14 10:44:55;;;;;;;6.60;4.28;;;;;;;21.29;57.35;99298.14;1822129;77;21002;-64
2021/05/14 10:47:27;;;;;;;9.13;4.40;;;;;;;21.14;57.05;99301.17;1822201;77;21015;-64
2021/05/14 10:50:04;;;;;;;5.42;4.72;;;;;;;21.02;57.07;99330.33;1810776;77;20991;-64
2021/05/14 10:52:32;;;;;;;9.38;5.47;;;;;;;20.55;58.92;99335.05;1790035;80;20915;-66
2021/05/14 10:55:00;;;;;;;7.47;4.75;;;;;;;20.55;58.92;99335.05;1790485;78;20986;-65
2021/05/14 10:57:46;;;;;;;6.10;5.25;;;;;;;20.33;60.21;99338.34;1792677;78;20915;-65
2021/05/14 11:00:31;;;;;;;6.50;5.90;;;;;;;20.18;60.22;99324.13;1789776;80;21511;-69
2021/05/14 11:03:14;;;;;;;10.32;6.60;;;;;;;19.96;59.96;99322.47;1796100;78;20938;-66
2021/05/14 11:05:49;;;;;;;6.42;5.30;;;;;;;19.80;60.88;99315.00;1800033;78;21764;-64
2021/05/14 11:08:38;;;;;;;6.47;4.72;;;;;;;19.73;61.98;99315.31;1808068;78;20964;-65
2021/05/14 11:11:12;;;;;;;6.75;4.75;;;;;;;19.72;61.61;99306.56;1805142;78;21554;-64
2021/05/14 11:13:51;;;;;;;11.90;6.28;;;;;;;19.74;62.10;99297.16;1802633;78;21048;-64
2021/05/14 11:16:42;;;;;;;8.98;5.65;;;;;;;19.73;62.04;99291.05;1814284;78;21468;-67
2021/05/14 11:19:24;;;;;;;6.92;5.45;;;;;;;19.70;62.09;99285.25;1808377;78;20974;-66
2021/05/14 11:22:12;;;;;;;5.95;5.35;;;;;;;19.65;62.78;99292.34;1795095;78;20959;-64
2021/05/14 11:24:51;;;;;;;5.65;4.30;;;;;;;19.64;64.96;99286.73;1783546;78;20968;-69
2021/05/14 11:27:21;;;;;;;6.53;4.55;;;;;;;19.62;63.56;99288.20;1802332;78;21082;-68
2021/05/14 11:29:53;;;;;;;7.22;4.72;;;;;;;19.69;63.29;99292.84;1747627;82;20910;-67
2021/05/14 11:32:32;;;;;;;9.90;4.75;;;;;;;19.77;62.88;99283.13;1784559;78;21545;-68
2021/05/14 11:35:21;;;;;;;7.58;4.60;;;;;;;19.88;61.18;99278.86;1768891;79;21043;-69
2021/05/14 11:37:57;;;;;;;8.10;4.45;;;;;;;20.04;60.99;99272.73;1794727;78;21457;-65
2021/05/14 11:40:35;;;;;;;6.55;5.08;;;;;;;20.24;61.16;99261.34;1787512;78;21023;-69
2021/05/14 11:43:04;;;;;;;5.62;4.12;;;;;;;20.45;61.73;99260.34;1784117;78;21676;-66
2021/05/14 11:45:38;;;;;;;5.97;4.10;;;;;;;20.69;61.02;99258.66;1778585;79;20993;-65
2021/05/14 11:48:21;;;;;;;8.07;4.13;;;;;;;20.88;60.65;99256.92;1782829;79;20998;-66
2021/05/14 11:50:55;;;;;;;6.35;3.90;;;;;;;21.07;59.63;99252.55;1742633;82;21631;-66
2021/05/14 11:53:22;;;;;;;7.33;3.98;;;;;;;21.20;58.63;99242.22;1788403;79;21039;-67
2021/05/14 11:55:51;;;;;;;6.05;3.72;;;;;;;21.28;57.61;99248.83;1787427;80;21388;-68
2021/05/14 11:58:18;;;;;;;4.90;3.60;;;;;;;21.38;58.82;99247.80;1745437;82;20934;-66
2021/05/14 12:00:47;;;;;;;3.72;3.15;;;;;;;21.48;58.69;99244.42;1722690;82;20965;-66
2021/05/14 12:03:16;;;;;;;4.65;3.30;;;;;;;21.53;57.19;99240.26;1797787;77;20971;-67
2021/05/14 12:05:45;;;;;;;6.37;3.77;;;;;;;21.54;57.42;99235.28;1800635;78;21140;-66
2021/05/14 12:08:23;;;;;;;8.85;3.60;;;;;;;21.57;57.54;99232.79;1801199;78;21017;-65
2021/05/14 12:10:55;;;;;;;5.90;3.60;;;;;;;21.59;56.27;99225.48;1736672;82;20901;-66
2021/05/14 12:13:24;;;;;;;5.08;3.15;;;;;;;21.60;55.11;99228.43;1770966;78;21552;-65
2021/05/14 12:16:06;;;;;;;5.87;3.20;;;;;;;21.61;54.72;99230.08;1785301;79;20912;-65
2021/05/14 12:18:35;;;;;;;6.10;3.70;;;;;;;21.61;54.39;99222.95;1793209;79;21048;-68
2021/05/14 12:21:07;;;;;;;5.50;3.35;;;;;;;21.61;54.39;99222.95;1781758;78;20948;-68
2021/05/14 12:23:34;;;;;;;5.42;3.42;;;;;;;21.58;54.77;99210.59;1757031;79;21597;-68
2021/05/14 12:26:04;;;;;;;4.12;3.33;;;;;;;21.56;54.68;99212.59;1776695;79;21037;-66
2021/05/14 12:28:42;;;;;;;6.47;3.15;;;;;;;21.51;54.72;99205.17;1776607;79;20979;-67
2021/05/14 12:31:18;;;;;;;5.83;3.50;;;;;;;21.47;53.07;99193.77;1789065;79;23205;-65
2021/05/14 12:33:58;;;;;;;3.50;3.20;;;;;;;21.41;53.71;99187.85;1804083;78;20995;-67
2021/05/14 12:36:38;;;;;;;3.27;2.72;;;;;;;21.39;52.96;99185.37;1790090;78;20963;-64
2021/05/14 12:39:19;;;;;;;5.78;2.80;;;;;;;21.36;51.66;99179.11;1802086;78;21532;-64
2021/05/14 12:42:02;;;;;;;3.42;2.70;;;;;;;21.32;51.88;99182.28;1803387;78;21014;-67
2021/05/14 12:44:29;;;;;;;2.72;2.52;;;;;;;21.28;51.84;99172.03;1785245;80;21884;-65
2021/05/14 12:47:03;;;;;;;3.27;2.40;;;;;;;21.24;49.37;99172.55;1800695;78;20982;-64
2021/05/14 12:49:36;;;;;;;2.45;2.25;;;;;;;21.24;49.37;99172.55;1821062;78;21116;-65
2021/05/14 12:52:16;;;;;;;3.67;2.30;;;;;;;21.25;49.00;99176.86;1821991;78;21026;-67
2021/05/14 12:55:03;;;;;;;5.00;2.60;;;;;;;21.23;48.46;99173.05;1806730;78;21010;-63
2021/05/14 12:57:46;;;;;;;4.90;2.40;;;;;;;21.18;48.35;99175.91;1797793;78;21125;-64
2021/05/14 13:00:30;;;;;;;4.97;2.58;;;;;;;21.18;48.35;99175.91;1785602;78;21019;-64
2021/05/14 13:03:07;;;;;;;3.62;2.55;;;;;;;21.20;48.96;99179.99;1792231;78;20943;-65
2021/05/14 13:05:49;;;;;;;2.72;2.42;;;;;;;21.22;49.04;99176.70;1799620;77;21472;-64
2021/05/14 13:08:23;;;;;;;3.77;2.50;;;;;;;21.23;49.33;99178.36;1820405;78;21022;-63
2021/05/14 13:11:00;;;;;;;3.72;2.50;;;;;;;21.30;49.48;99189.90;1820600;78;21053;-64
2021/05/14 13:13:24;;;;;;;2.67;2.25;;;;;;;21.30;49.48;99189.90;1817457;78;20935;-64
2021/05/14 13:15:53;;;;;;;10.35;3.30;;;;;;;21.33;48.17;99182.60;1794671;78;20946;-65
2021/05/14 13:18:37;;;;;;;3.98;3.08;;;;;;;21.32;48.89;99189.72;1789147;80;20990;-65
2021/05/14 13:21:05;;;;;;;3.87;2.55;;;;;;;21.43;49.06;99188.00;1788189;78;21006;-64
2021/05/14 13:23:33;;;;;;;2.70;2.50;;;;;;;21.43;49.06;99188.00;1793446;78;21066;-67
2021/05/14 13:26:00;;;;;;;3.20;2.55;;;;;;;21.56;49.15;99190.90;1809452;78;20898;-66
2021/05/14 13:28:27;;;;;;;3.55;2.62;;;;;;;21.71;48.95;99184.30;1799497;78;20991;-66
2021/05/14 13:30:54;;;;;;;5.05;3.00;;;;;;;21.84;49.11;99187.69;1789566;78;20987;-65
2021/05/14 13:33:22;;;;;;;2.98;2.67;;;;;;;21.96;48.94;99192.39;1811388;78;20921;-66
2021/05/14 13:35:49;;;;;;;7.30;3.20;;;;;;;22.09;48.72;99188.31;1810690;79;21512;-64
2021/05/14 13:38:16;;;;;;;4.87;3.10;;;;;;;22.21;48.55;99186.88;1812844;78;21006;-65
2021/05/14 13:40:45;;;;;;;6.35;3.50;;;;;;;22.36;47.70;99178.44;1817575;78;21604;-66
2021/05/14 13:43:13;;;;;;;6.67;3.47;;;;;;;22.44;47.84;99178.83;1819122;78;21040;-65
2021/05/14 13:45:43;;;;;;;3.58;3.20;;;;;;;22.52;48.16;99186.70;1818945;79;20972;-65
2021/05/14 13:48:14;;;;;;;8.78;3.58;;;;;;;;;;1819227;79;21845;-67
2021/05/14 13:50:39;;;;;;;9.18;3.30;;;;;;;22.69;48.09;99184.19;1819608;78;21004;-65
2021/05/14 13:53:06;;;;;;;5.12;3.30;;;;;;;22.73;47.37;99180.66;1813688;78;20986;-62
2021/05/14 13:55:33;;;;;;;4.22;3.00;;;;;;;22.72;47.76;99177.19;1820653;78;20986;-68
2021/05/14 13:58:01;;;;;;;4.85;2.92;;;;;;;22.72;47.99;99182.50;1801337;78;21367;-62
2021/05/14 14:00:28;;;;;;;3.95;3.10;;;;;;;22.72;47.83;99176.36;1804894;78;21076;-66
2021/05/14 14:02:55;;;;;;;8.05;3.67;;;;;;;22.69;47.10;99174.90;1821352;78;21031;-63
2021/05/14 14:05:24;;;;;;;9.53;3.55;;;;;;;22.64;47.00;99171.97;1818455;78;20948;-64
